Time;durP1;ratioP1;P1;durP2;ratioP2;P2;SDS_P1;SDS_P2;PMS_P1;PMS_P2;Temp;Humidity;BMP_temperature;BMP_pressure;BME280_temperature;BME280_humidity;BME280_pressure;Samples;Min_cycle;Max_cycle;Signal;HPM_P1;HPM_P2
2023/12/21 00:01:52;;;;;;;16.10;3.42;;;12.00;99.90;;;;;;7444927;19;20006;-81
2023/12/21 00:04:28;;;;;;;11.13;2.47;;;12.00;99.90;;;;;;7419281;19;20006;-81
2023/12/21 00:07:00;;;;;;;19.70;2.33;;;12.00;99.90;;;;;;7395674;19;20027;-80
2023/12/21 00:09:32;;;;;;;19.17;2.42;;;12.10;99.90;;;;;;7395769;19;20039;-80
2023/12/21 00:12:00;;;;;;;;;;;12.10;99.90;;;;;;7395488;19;20003;-80
2023/12/21 00:14:33;;;;;;;16.17;2.33;;;12.10;99.90;;;;;;7393713;19;19939;-80
2023/12/21 00:17:04;;;;;;;18.65;2.30;;;12.10;99.90;;;;;;7415437;19;20011;-81
2023/12/21 00:19:33;;;;;;;15.23;2.33;;;11.80;99.90;;;;;;7394343;19;20039;-80
2023/12/21 00:22:05;;;;;;;11.13;2.38;;;11.80;99.90;;;;;;7394433;19;20258;-79
2023/12/21 00:24:39;;;;;;;17.08;2.70;;;11.80;99.90;;;;;;7394917;19;20023;-80
2023/12/21 00:27:11;;;;;;;17.90;2.25;;;11.90;99.90;;;;;;7392958;19;20017;-79
2023/12/21 00:29:40;;;;;;;16.60;2.60;;;11.80;99.90;;;;;;7392561;19;20019;-81
2023/12/21 00:32:10;;;;;;;22.48;3.15;;;11.80;99.90;;;;;;7415855;19;20014;-81
2023/12/21 00:34:42;;;;;;;13.63;2.70;;;11.90;99.90;;;;;;7391408;19;20039;-79
2023/12/21 00:37:14;;;;;;;14.23;2.67;;;12.00;99.90;;;;;;7392682;19;20301;-80
2023/12/21 00:39:42;;;;;;;;;;;12.00;99.90;;;;;;7392917;19;20027;-80
2023/12/21 00:42:11;;;;;;;18.05;2.85;;;12.00;99.90;;;;;;7396625;19;19923;-80
2023/12/21 00:44:40;;;;;;;19.20;2.90;;;12.00;99.90;;;;;;7398585;19;20019;-80
2023/12/21 00:47:09;;;;;;;24.88;3.05;;;11.90;99.90;;;;;;7414649;19;20007;-80
2023/12/21 00:49:37;;;;;;;24.00;3.10;;;12.00;99.90;;;;;;7408221;19;20007;-79
2023/12/21 00:52:07;;;;;;;21.25;3.63;;;12.00;99.90;;;;;;7408595;19;20007;-78
2023/12/21 00:54:38;;;;;;;18.90;3.38;;;12.00;99.90;;;;;;7409658;19;20002;-78
2023/12/21 00:57:07;;;;;;;;;;;12.10;99.90;;;;;;7409073;19;20020;-79
2023/12/21 00:59:35;;;;;;;14.90;2.58;;;12.20;99.90;;;;;;7408106;19;19931;-80
2023/12/21 01:02:04;;;;;;;13.45;2.92;;;12.20;99.90;;;;;;7419115;19;20034;-80
2023/12/21 01:04:33;;;;;;;16.85;2.90;;;12.10;99.90;;;;;;7390613;19;20060;-80
2023/12/21 01:07:02;;;;;;;18.85;2.60;;;12.20;99.90;;;;;;7391283;19;20047;-80
2023/12/21 01:09:31;;;;;;;17.45;3.20;;;12.20;99.90;;;;;;7392283;19;20366;-79
2023/12/21 01:12:03;;;;;;;14.77;2.90;;;12.20;99.90;;;;;;7391771;19;20349;-80
2023/12/21 01:14:32;;;;;;;;;;;12.10;99.90;;;;;;7392170;19;20039;-80
2023/12/21 01:17:01;;;;;;;24.65;3.25;;;12.10;99.90;;;;;;7409133;19;20148;-80
2023/12/21 01:19:29;;;;;;;19.15;3.17;;;12.20;99.90;;;;;;7393016;19;20021;-81
2023/12/21 01:21:58;;;;;;;24.55;3.20;;;12.20;99.90;;;;;;7392765;19;20003;-81
2023/12/21 01:24:27;;;;;;;19.73;3.50;;;12.10;99.90;;;;;;7393802;19;20015;-79
2023/12/21 01:26:56;;;;;;;17.48;3.67;;;12.10;99.90;;;;;;7391096;19;20007;-81
2023/12/21 01:29:28;;;;;;;15.80;3.08;;;12.00;99.90;;;;;;7390444;19;20022;-79
2023/12/21 01:31:59;;;;;;;28.27;3.88;;;12.00;99.90;;;;;;7413674;19;20358;-80
2023/12/21 01:34:28;;;;;;;32.45;4.05;;;12.10;99.90;;;;;;7389637;19;20023;-80
2023/12/21 01:36:57;;;;;;;23.73;3.97;;;12.10;99.90;;;;;;7391046;19;20006;-80
2023/12/21 01:39:26;;;;;;;20.80;3.38;;;12.10;99.90;;;;;;7393056;19;20014;-80
2023/12/21 01:41:55;;;;;;;17.25;3.00;;;12.20;99.90;;;;;;7390573;19;20007;-79
2023/12/21 01:44:23;;;;;;;22.17;2.72;;;12.20;99.90;;;;;;7394073;19;20354;-79
2023/12/21 01:46:55;;;;;;;19.92;2.58;;;12.20;99.90;;;;;;7410564;19;20035;-79
2023/12/21 01:49:24;;;;;;;;;;;12.00;99.90;;;;;;7391981;19;20303;-80
2023/12/21 01:51:53;;;;;;;18.88;3.45;;;12.00;99.90;;;;;;7391974;19;19911;-79
2023/12/21 01:54:23;;;;;;;32.63;4.00;;;12.10;99.90;;;;;;7391266;19;20003;-79
2023/12/21 01:56:52;;;;;;;14.20;2.97;;;12.10;99.90;;;;;;7391174;19;20006;-79
2023/12/21 01:59:21;;;;;;;20.55;2.83;;;12.10;99.90;;;;;;7391177;19;20323;-79
2023/12/21 02:01:50;;;;;;;24.35;3.50;;;12.20;99.90;;;;;;7410867;19;20015;-80
2023/12/21 02:04:22;;;;;;;18.75;2.75;;;12.20;99.90;;;;;;7387222;19;20015;-78
2023/12/21 02:06:51;;;;;;;16.02;2.28;;;12.20;99.90;;;;;;7387235;19;20018;-80
2023/12/21 02:09:22;;;;;;;11.63;2.55;;;12.10;99.90;;;;;;7385813;19;20007;-80
2023/12/21 02:11:51;;;;;;;10.10;2.22;;;12.20;99.90;;;;;;7384650;19;20020;-79
2023/12/21 02:14:20;;;;;;;13.20;2.20;;;12.20;99.90;;;;;;7390117;19;20342;-80
2023/12/21 02:16:57;;;;;;;13.18;2.22;;;12.20;99.90;;;;;;7403185;19;20014;-80
2023/12/21 02:19:29;;;;;;;19.45;2.53;;;12.10;99.90;;;;;;7387320;19;20271;-80
2023/12/21 02:22:01;;;;;;;12.93;2.50;;;12.10;99.90;;;;;;7386642;19;20014;-79
2023/12/21 02:24:33;;;;;;;13.65;1.95;;;12.10;99.90;;;;;;7385746;19;20409;-79
2023/12/21 02:27:02;;;;;;;9.10;1.88;;;12.10;99.90;;;;;;7386434;19;19998;-80
2023/12/21 02:29:31;;;;;;;13.10;2.20;;;12.10;99.90;;;;;;7385864;19;20680;-80
2023/12/21 02:32:00;;;;;;;12.40;1.63;;;12.10;99.90;;;;;;7405965;19;20003;-79
2023/12/21 02:34:29;;;;;;;6.90;1.88;;;12.20;99.90;;;;;;7387868;19;20059;-80
2023/12/21 02:36:59;;;;;;;10.30;2.58;;;12.20;99.90;;;;;;7389043;19;20031;-80
2023/12/21 02:39:27;;;;;;;16.20;1.85;;;12.20;99.90;;;;;;7392057;19;20013;-80
2023/12/21 02:41:59;;;;;;;9.07;1.90;;;12.00;99.90;;;;;;7390138;19;20014;-81
2023/12/21 02:44:27;;;;;;;;;;;11.90;99.90;;;;;;7389194;19;20014;-81
2023/12/21 02:46:57;;;;;;;13.23;1.92;;;11.80;99.90;;;;;;7412215;19;19938;-81
2023/12/21 02:49:26;;;;;;;11.85;2.15;;;12.00;99.90;;;;;;7392148;19;20059;-81
2023/12/21 02:51:55;;;;;;;15.43;1.80;;;12.10;99.90;;;;;;7393004;19;20097;-80
2023/12/21 02:54:23;;;;;;;10.55;1.98;;;12.10;99.90;;;;;;7389485;19;20258;-80
2023/12/21 02:56:52;;;;;;;8.02;1.70;;;11.90;99.90;;;;;;7389925;19;20026;-79
2023/12/21 02:59:24;;;;;;;11.10;2.00;;;12.10;99.90;;;;;;7392385;19;20017;-80
2023/12/21 03:01:52;;;;;;;8.43;1.55;;;12.10;99.90;;;;;;7411744;19;20003;-79
2023/12/21 03:04:24;;;;;;;16.05;2.03;;;12.10;99.90;;;;;;7390559;19;20021;-80
2023/12/21 03:06:54;;;;;;;16.30;1.48;;;12.00;99.90;;;;;;7402025;19;20011;-79
2023/12/21 03:09:23;;;;;;;7.68;1.73;;;12.10;99.90;;;;;;7404752;19;20003;-79
2023/12/21 03:11:52;;;;;;;8.25;1.42;;;12.10;99.90;;;;;;7404480;19;20042;-79
2023/12/21 03:14:24;;;;;;;10.40;1.40;;;12.20;99.90;;;;;;7411319;19;20034;-80
2023/12/21 03:16:52;;;;;;;4.43;1.40;;;12.30;99.90;;;;;;7427200;19;20032;-78
2023/12/21 03:19:21;;;;;;;3.80;1.40;;;12.10;99.90;;;;;;7392273;19;20018;-79
2023/12/21 03:21:50;;;;;;;9.23;1.88;;;12.10;99.90;;;;;;7389846;19;20010;-79
2023/12/21 03:24:19;;;;;;;5.78;1.58;;;11.80;99.90;;;;;;7387032;19;20063;-80
2023/12/21 03:26:48;;;;;;;5.93;1.58;;;11.90;99.90;;;;;;7388875;19;20425;-80
2023/12/21 03:29:19;;;;;;;11.95;2.10;;;12.00;99.90;;;;;;7408635;19;20240;-81
2023/12/21 03:31:52;;;;;;;4.70;1.13;;;11.90;99.90;;;;;;7389028;19;20430;-81
2023/12/21 03:34:21;;;;;;;7.35;1.50;;;12.00;99.90;;;;;;7388298;19;20224;-79
2023/12/21 03:36:50;;;;;;;7.57;1.60;;;12.10;99.90;;;;;;7389592;19;20026;-79
2023/12/21 03:39:20;;;;;;;10.00;1.50;;;12.00;99.90;;;;;;7388628;19;20026;-80
2023/12/21 03:41:49;;;;;;;7.38;1.48;;;12.00;99.90;;;;;;7396284;19;20007;-80
2023/12/21 03:44:17;;;;;;;5.05;1.45;;;12.10;99.90;;;;;;7417928;19;20019;-80
2023/12/21 03:46:46;;;;;;;11.95;1.55;;;12.10;99.90;;;;;;7399265;19;20009;-79
2023/12/21 03:49:17;;;;;;;8.13;1.48;;;12.10;99.90;;;;;;7398057;19;20362;-80
2023/12/21 03:51:48;;;;;;;12.27;1.73;;;12.10;99.90;;;;;;7397405;19;20030;-80
2023/12/21 03:54:17;;;;;;;8.88;1.42;;;12.10;99.90;;;;;;7394756;19;20003;-80
2023/12/21 03:56:45;;;;;;;7.50;1.25;;;12.20;99.90;;;;;;7396500;19;20031;-79
2023/12/21 03:59:14;;;;;;;6.15;1.65;;;12.20;99.90;;;;;;7414855;19;20026;-80
2023/12/21 04:01:43;;;;;;;5.18;1.50;;;12.20;99.90;;;;;;7394597;19;20010;-79
2023/12/21 04:04:12;;;;;;;11.90;1.80;;;12.20;99.90;;;;;;7391930;19;20527;-81
2023/12/21 04:06:43;;;;;;;10.65;1.60;;;12.30;99.90;;;;;;7393173;19;20006;-81
2023/12/21 04:09:12;;;;;;;5.28;1.60;;;12.30;99.90;;;;;;7392356;19;20006;-79
2023/12/21 04:11:41;;;;;;;7.07;1.35;;;12.40;99.90;;;;;;7391589;19;19992;-80
2023/12/21 04:14:10;;;;;;;3.20;1.10;;;12.30;99.90;;;;;;7414915;19;20015;-80
2023/12/21 04:16:38;;;;;;;4.32;1.40;;;12.20;99.90;;;;;;7389123;19;20031;-79
2023/12/21 04:19:07;;;;;;;17.17;1.92;;;12.20;99.90;;;;;;7390573;19;20007;-80
2023/12/21 04:21:36;;;;;;;18.15;1.95;;;12.30;99.90;;;;;;7388806;19;20034;-80
2023/12/21 04:24:10;;;;;;;7.68;0.98;;;12.20;99.90;;;;;;7395910;19;20013;-80
2023/12/21 04:26:39;;;;;;;6.00;1.10;;;12.30;99.90;;;;;;7395366;19;20010;-79
2023/12/21 04:29:08;;;;;;;4.18;1.33;;;12.50;99.90;;;;;;7416782;19;20034;-79
2023/12/21 04:31:41;;;;;;;4.38;1.13;;;12.30;99.90;;;;;;7392865;19;20382;-80
2023/12/21 04:34:09;;;;;;;8.23;1.42;;;12.30;99.90;;;;;;7395321;19;20011;-80
2023/12/21 04:36:41;;;;;;;5.68;1.20;;;12.40;99.90;;;;;;7392885;19;20016;-79
2023/12/21 04:39:12;;;;;;;5.70;1.10;;;12.40;99.90;;;;;;7392739;19;19998;-79
2023/12/21 04:41:41;;;;;;;4.80;1.00;;;12.40;99.90;;;;;;7391667;19;20015;-79
2023/12/21 04:44:10;;;;;;;6.10;1.02;;;12.40;99.90;;;;;;7409219;19;20310;-79
2023/12/21 04:46:39;;;;;;;4.60;1.27;;;12.30;99.90;;;;;;7387942;19;20022;-78
2023/12/21 04:49:11;;;;;;;7.75;1.17;;;12.50;99.90;;;;;;7388979;19;20003;-80
